Terminal Aerodrome Forecast
Issued by NWS Bismarck, ND

Home | Current Version | Previous Version | Graphics & Text | Print | Product List | Glossary On
Versions: 1 2 3 4 5 6 7 8 9 10 11 12 13 14 15 16 17 18 19 20
798
FTUS43 KBIS 300533
TAFISN
TAF
KISN 300533Z 3006/0106 32020G28KT P6SM -SHSN SCT015 OVC035
      TEMPO 3006/3009 2SM -SN BR OVC015
     FM300900 32017G25KT 3SM -SN OVC010
     FM301200 32014KT P6SM -SHSN OVC015
     FM302100 33010KT P6SM VCSH OVC010
     FM010000 33007KT P6SM OVC010=

USA.gov is the U.S. government's official web portal to all federal, state and local government web resources and services.